Home > Products > Valid Products > TAF

000
FTUS43 KBIS 241737 AAA
TAFDIK
TAF AMD
KDIK 241737Z 2418/2518 24007KT P6SM SCT080
     FM242100 18007KT P6SM SCT200
     FM250000 14006KT P6SM VCTS BKN150CB
     FM250200 10006KT P6SM -TSRA OVC040CB
     FM251100 05006KT 4SM -TSRA OVC025CB
     FM251400 06008KT P6SM SHRA VCTS OVC015CB=



000
FTUS43 KBIS 241737 AAA
TAFJMS
TAF AMD
KJMS 241737Z 2418/2518 32007KT P6SM SCT070
     FM242300 VRB04KT P6SM SCT070
     FM250500 09006KT 4SM -TSRA OVC040CB
     FM251200 10006KT P6SM -SHRA VCTS BKN040CB
     FM251400 11010KT P6SM -SHRA VCTS OVC025CB=



000
FTUS43 KBIS 241737 AAB
TAFBIS
TAF AMD
KBIS 241737Z 2418/2518 VRB04KT P6SM SCT150
     FM250000 VRB04KT P6SM VCTS BKN200CB
     FM250300 08004KT P6SM -TSRA OVC040CB
     FM251500 10007KT P6SM -SHRA VCTS BKN045CB=



000
FTUS43 KBIS 241737 AAA
TAFISN
TAF AMD
KISN 241737Z 2418/2518 23011KT P6SM BKN050
     FM242000 23011G19KT P6SM BKN150
     FM242300 23008KT P6SM SCT200
     FM250300 VRB04KT P6SM SCT200
     FM250800 VRB04KT P6SM -SHRA VCTS OVC040CB
     FM251500 05008KT P6SM -SHRA VCTS OVC025CB=



000
FTUS43 KBIS 241737 AAB
TAFMOT
TAF AMD
KMOT 241737Z 2418/2518 20012G18KT P6SM SCT110
     FM250100 24005KT P6SM SCT250
     FM250500 02004KT 4SM -TSRA OVC040CB
     FM251200 06009KT P6SM -SHRA VCTS BKN045CB=



000
FTUS43 KBIS 241709 AAA
TAFMOT
TAF AMD
KMOT 241709Z 2417/2512 20012G18KT P6SM SCT090
     FM250500 02004KT P6SM BKN130=



000
FTUS43 KBIS 240626 AAA
TAFJMS
TAF AMD
KJMS 240626Z 2406/2506 VRB15G25KT P6SM VCTS BKN080CB
      TEMPO 2406/2408 5SM -SHRA BKN060
     FM240800 28005KT P6SM VCTS BKN150CB
     FM241100 32005KT P6SM BKN200
     FM241500 16006KT P6SM FEW250
     FM250200 13006KT P6SM SCT250=



000
FTUS43 KBIS 240528 CCA
TAFJMS
TAF COR
KJMS 240528Z 2406/2506 VRB15G25KT 4SM -TSRA BKN080CB
     FM240800 28005KT P6SM VCTS BKN150CB
     FM241100 32005KT P6SM BKN200
     FM241500 16006KT P6SM FEW250
     FM250200 13006KT P6SM SCT250=



000
FTUS43 KBIS 240040 AAA
TAFMOT
TAF AMD
KMOT 240040Z 2401/2424 23013KT P6SM VCTS SCT100CB BKN150
     FM240300 26007KT P6SM FEW150 SCT250
     FM241800 22008KT P6SM SCT200=



000
FTUS43 KBIS 232333
TAFBIS
TAF
KBIS 232333Z 2400/2424 23008KT P6SM VCTS SCT070 BKN120CB
      TEMPO 2401/2405 -SHRA BKN070
     FM240600 VRB04KT P6SM FEW100 SCT200=



000
FTUS43 KBIS 232333
TAFJMS
TAF
KJMS 232333Z 2400/2424 19006KT P6SM VCSH SCT080 BKN140
     FM240700 VRB03KT P6SM FEW150 SCT200
     FM241700 16007KT P6SM FEW250=



000
FTUS43 KBIS 232333
TAFMOT
TAF
KMOT 232333Z 2400/2424 24013KT P6SM VCSH SCT100 BKN150
     FM240300 26007KT P6SM FEW150 SCT250
     FM241800 22008KT P6SM SCT200=



000
FTUS43 KBIS 232333
TAFISN
TAF
KISN 232333Z 2400/2424 25014G21KT P6SM VCSH SCT070 BKN140
     FM240200 26008KT P6SM FEW120 BKN200
     FM241500 23007KT P6SM FEW100 SCT200=



000
FTUS43 KBIS 232333
TAFDIK
TAF
KDIK 232333Z 2400/2424 26012G19KT P6SM VCSH SCT080 BKN090
     FM240400 26008KT P6SM FEW100 SCT200=



000
FTUS43 KBIS 231120
TAFMOT
TAF
KMOT 231120Z 2312/2412 27007KT P6SM FEW250
     FM231800 24014G22KT P6SM FEW250
     FM240200 24008KT P6SM SCT250=



000
FTUS43 KBIS 231120
TAFBIS
TAF
KBIS 231120Z 2312/2412 29006KT P6SM SKC
     FM231800 27007KT P6SM FEW250
     FM240600 00000KT P6SM VCSH BKN100=



000
FTUS43 KBIS 231120
TAFDIK
TAF
KDIK 231120Z 2312/2412 24012KT P6SM SKC
     FM240300 24005KT P6SM SCT250=



000
FTUS43 KBIS 231120
TAFJMS
TAF
KJMS 231120Z 2312/2412 26004KT P6SM OVC100
     FM231500 29010KT P6SM FEW200
     FM240300 VRB03KT P6SM FEW250=



000
FTUS43 KBIS 231120
TAFISN
TAF
KISN 231120Z 2312/2412 24008KT P6SM FEW250
     FM231700 23014G24KT P6SM FEW250
     FM240100 25011KT P6SM SCT150=



000
FTUS43 KBIS 230633 AAA
TAFJMS
TAF AMD
KJMS 230633Z 2307/2406 19012KT P6SM -RA OVC050
     FM230900 28006KT P6SM VCSH OVC090
     FM231200 27008KT P6SM SCT150=



000
FTUS43 KBIS 230520
TAFDIK
TAF
KDIK 230520Z 2306/2406 27009KT P6SM SCT150
     FM231700 24013G21KT P6SM FEW250
     FM240100 23009KT P6SM BKN150=



000
FTUS43 KBIS 230520
TAFBIS
TAF
KBIS 230520Z 2306/2406 29004KT P6SM VCSH BKN110
      TEMPO 2306/2310 -SHRA BKN060
     FM231100 28004KT P6SM SCT200
     FM240300 VRB04KT P6SM SCT100 BKN150=



000
FTUS43 KBIS 230520
TAFMOT
TAF
KMOT 230520Z 2306/2406 22004KT P6SM VCSH SCT100 BKN150
     FM231100 26008KT P6SM FEW250
     FM231700 25013G22KT P6SM FEW250
     FM240200 23007KT P6SM BKN200=



000
FTUS43 KBIS 230520
TAFJMS
TAF
KJMS 230520Z 2306/2406 26009G16KT P6SM -TSRA SCT025 OVC050CB
     FM230900 28006KT P6SM VCSH OVC090
     FM231200 27008KT P6SM SCT150=



000
FTUS43 KBIS 230520
TAFISN
TAF
KISN 230520Z 2306/2406 21006KT P6SM SCT200
     FM231600 24013G21KT P6SM FEW250
     FM240200 24007KT P6SM BKN150=



000
FTUS43 KBIS 230234 AAC
TAFBIS
TAF AMD
KBIS 230234Z 2303/2324 VRB25G40KT 5SM TSRA BKN040CB OVC090CB
     FM230400 30004KT P6SM VCTS BKN050CB
     FM230700 22004KT P6SM BKN050 BKN200
     FM231400 25005KT P6SM FEW250=



000
FTUS43 KBIS 230133 AAB
TAFJMS
TAF AMD
KJMS 230133Z 2302/2324 VRB18G40KT 1/2SM +TSRAGS BKN015CB
     FM230300 18008KT 6SM TSRA OVC080CB
     FM230600 19007KT P6SM -SHRA VCTS OVC040CB
     FM231000 28006KT P6SM -SHRA BKN040 OVC100
     FM231300 27008KT P6SM SCT060=



000
FTUS43 KBIS 230127 AAA
TAFJMS
TAF AMD
KJMS 230127Z 2301/2324 16014G23KT P6SM VCTS BKN070CB
     FM230300 18008KT 6SM TSRA OVC080CB
     FM230600 19007KT P6SM -SHRA VCTS OVC040CB
     FM231000 28006KT P6SM -SHRA BKN040 OVC100
     FM231300 27008KT P6SM SCT060=



000
FTUS43 KBIS 222345 CCA
TAFJMS
TAF COR
KJMS 222345Z 2300/2324 17014G23KT P6SM VCTS BKN070CB
     FM230300 18008KT 6SM TSRA OVC080CB
     FM230600 19007KT P6SM -SHRA VCTS OVC040CB
     FM231000 28006KT P6SM -SHRA BKN040 OVC100
     FM231300 27008KT P6SM SCT060=



000
FTUS43 KBIS 221721
TAFJMS
TAF
KJMS 221721Z 2218/2318 18019G28KT P6SM FEW025 FEW080
     FM230500 19007KT 6SM -TSRA BKN030CB
     FM230700 23007KT P6SM VCSH OVC060
     FM231000 29007KT P6SM SCT200=



000
FTUS43 KBIS 221721
TAFMOT
TAF
KMOT 221721Z 2218/2318 18012G20KT P6SM FEW100
     FM222100 21011KT 6SM -TSRA SCT040CB
     FM230000 21007KT P6SM VCSH SCT060
     FM230600 23006KT P6SM SCT250=



000
FTUS43 KBIS 221721
TAFBIS
TAF
KBIS 221721Z 2218/2318 20010KT P6SM BKN022
     FM222000 19012KT P6SM BKN040
     FM230000 23012KT 6SM -TSRA BKN040CB
     FM230300 32005KT P6SM VCSH BKN050
     FM230600 24004KT P6SM SCT200=



000
FTUS43 KBIS 221721
TAFISN
TAF
KISN 221721Z 2218/2318 23013G22KT P6SM FEW150
     FM230000 21007KT P6SM SCT250=



000
FTUS43 KBIS 221721
TAFDIK
TAF
KDIK 221721Z 2218/2318 25006KT P6SM FEW080
     FM222000 26010KT P6SM VCTS SCT060CB
     FM230000 27005KT P6SM VCSH SCT120
     FM230400 24005KT P6SM FEW150=



000
FTUS43 KBIS 221448 AAC
TAFJMS
TAF AMD
KJMS 221448Z 2215/2312 18022G29KT P6SM BKN045
     FM230000 18017G25KT P6SM -SHRA VCTS OVC040CB
     FM230300 17014KT 5SM SHRA VCTS BKN035CB
      TEMPO 2303/2306 VRB25G40KT 2SM TSRA BKN015CB OVC040
     FM230800 29006KT P6SM -SHRA OVC015=



000
FTUS43 KBIS 221306 AAA
TAFISN
TAF AMD
KISN 221306Z 2213/2312 22010KT P6SM BKN140
     FM221800 23012KT P6SM SCT200
     FM230200 22007KT P6SM SCT250=



000
FTUS43 KBIS 221304 AAB
TAFJMS
TAF AMD
KJMS 221304Z 2213/2312 17016G24KT P6SM VCTS BKN030CB OVC060
     FM221600 18016G24KT P6SM OVC040
     FM230000 18017G25KT P6SM -SHRA VCTS OVC040CB
     FM230300 17014KT 5SM SHRA VCTS BKN035CB
      TEMPO 2303/2306 VRB25G40KT 2SM TSRA BKN015CB OVC040
     FM230800 29006KT P6SM -SHRA OVC015=



000
FTUS43 KBIS 221214 AAA
TAFJMS
TAF AMD
KJMS 221214Z 2212/2312 17016G24KT P6SM VCTS BKN050CB OVC120
     FM221500 18016G24KT P6SM OVC070
     FM222200 18018G26KT P6SM OVC035
     FM230000 18017G25KT P6SM -SHRA VCTS OVC040CB
     FM230300 17014KT 5SM SHRA VCTS BKN035CB
      TEMPO 2303/2306 VRB25G40KT 2SM TSRA BKN015CB OVC040
     FM230800 29006KT P6SM -SHRA OVC015=



000
FTUS43 KBIS 221213 AAA
TAFDIK
TAF AMD
KDIK 221213Z 2212/2312 18012KT P6SM BKN045 OVC060
     FM221500 24008KT P6SM BKN060
     FM221900 24011KT P6SM SCT130
     FM222200 25012KT P6SM VCTS BKN250CB
     FM230200 27005KT P6SM BKN150=



000
FTUS43 KBIS 221158 AAA
TAFMOT
TAF AMD
KMOT 221158Z 2212/2312 16018G23KT P6SM OVC026
     FM221700 19012KT P6SM VCTS BKN035CB
     FM222000 20013KT P6SM BKN080
     FM222200 20013KT P6SM -SHRA VCTS BKN080CB
     FM230000 21012KT P6SM SCT200=



000
FTUS43 KBIS 220520
TAFBIS
TAF
KBIS 220520Z 2206/2306 16021G25KT P6SM BKN050
     FM221100 14015KT P6SM VCSH BKN015
     FM221400 16013KT P6SM VCSH OVC008
     FM221700 17015KT P6SM BKN015
     FM222100 17014KT P6SM BKN040=



000
FTUS43 KBIS 220520
TAFJMS
TAF
KJMS 220520Z 2206/2306 16012KT P6SM BKN250 WS020/17040KT
     FM221200 16014KT P6SM SCT050 BKN090
     FM221700 17020G29KT P6SM BKN050=



000
FTUS43 KBIS 220520
TAFDIK
TAF
KDIK 220520Z 2206/2306 16018G28KT P6SM VCTS OVC020CB
     FM221200 16012KT P6SM BKN015
     FM221700 22011KT P6SM SCT060
     FM222100 27010KT P6SM VCTS SCT060CB BKN100=



000
FTUS43 KBIS 220520
TAFMOT
TAF
KMOT 220520Z 2206/2306 13017G25KT P6SM BKN050
     FM221100 15011KT P6SM VCSH OVC015
     FM221800 16011KT P6SM BKN025
     FM222100 17011KT P6SM BKN050=



000
FTUS43 KBIS 220520
TAFISN
TAF
KISN 220520Z 2206/2306 17016G22KT P6SM VCTS BKN040CB
     FM221200 20006KT P6SM BKN050
     FM221600 23006KT P6SM SCT100=



000
FTUS43 KBIS 212339
TAFDIK
TAF
KDIK 212339Z 2200/2224 15029G39KT P6SM BKN060
     FM220600 17016KT P6SM VCTS OVC015CB
     FM221200 16012KT P6SM BKN008
     FM221700 22011KT P6SM SCT060
     FM222100 27010KT P6SM VCTS SCT060CB BKN100=



000
FTUS43 KBIS 212339
TAFMOT
TAF
KMOT 212339Z 2200/2224 14021G29KT P6SM BKN200
     FM220300 13017G25KT P6SM BKN090
     FM221100 15011KT P6SM VCSH OVC015
     FM221800 16011KT P6SM BKN025
     FM222100 17011KT P6SM BKN050=



000
FTUS43 KBIS 212339
TAFISN
TAF
KISN 212339Z 2200/2224 14021G29KT P6SM BKN250
     FM220500 15016G26KT P6SM VCTS BKN060CB
     FM221200 20006KT P6SM BKN050
     FM221600 23006KT P6SM SCT100=



000
FTUS43 KBIS 212339
TAFBIS
TAF
KBIS 212339Z 2200/2224 16021G29KT P6SM BKN050
     FM220900 14015KT P6SM VCSH BKN015
     FM221400 16013KT P6SM VCSH OVC008
     FM221700 17015KT P6SM BKN015
     FM222100 17014KT P6SM BKN040=



000
FTUS43 KBIS 212339
TAFJMS
TAF
KJMS 212339Z 2200/2224 16017G25KT P6SM SCT250
     FM220500 15012G18KT P6SM BKN250 WS020/17040KT
     FM221200 16014KT P6SM SCT050 BKN090
     FM221700 17020G29KT P6SM BKN050=



    US Dept of Commerce
    National Oceanic and Atmospheric Administration
    National Weather Service
    1325 East West Highway
    Silver Spring, MD 20910
    Page Author: NWS Internet Services Team
Disclaimer
Information Quality
Credits
Glossary
Privacy Policy
Freedom of Information Act (FOIA)
About Us
Career Opportunities